»·PEaware :: DCM717 KBFI-KPDX

DCM717 :: KBFI-KPDX

FLIGHT INFORMATION

Flight Status: Arrived
Operator:
DotCom
More flights by this operator :: More flights under this callsign
Pilot: Ty S. (2873)
Aircraft: MCDONNELL-DOUGLAS MD-88
(MD88)
More flights by this aircraft type
Origin: KBFI Boeing Field/King Co Intl
United States
Destination: KPDX Portland Intl
United States
More flights between these airports :: More routes between these airports
Route: +NRVNA1 BUWZO KRATR2
File this flight plan on PilotEdge
Remarks: RMK / SIMBRIEF
Altitude:
(Current/Filed)
19,000ft
Speed:
(Current/Filed)
374kts
Departed: 28-Mar-20 11:37 AM
Arrived: 28-Mar-20 12:09 PM
Distance/Time
Traveled:
117nm/0:32
Distance/Time
To Go:
Arrived

Flight Plot

Page will automatically refresh every two minutes.

Flight plan parsing failed; only flown route is shown


Map Options




Map Legend


Flown Route
Filed Route
Departure Airport
Arrival Airport
Navaid (VOR, NDB)
Fix

Horizontal Profiles

Position Reports

Time Latitude Longitude Heading Altitude Ground
Speed
28-Mar-20 10:33 47.537044 -122.304756 187 25ft 0kts
28-Mar-20 10:34 47.537044 -122.304756 187 25ft 0kts
28-Mar-20 10:35 47.537044 -122.304756 187 25ft 0kts
28-Mar-20 10:36 47.537044 -122.304756 187 25ft 0kts
28-Mar-20 10:37 47.537044 -122.304756 187 25ft 0kts
28-Mar-20 10:38 47.537044 -122.304756 187 25ft 0kts
28-Mar-20 10:39 47.537044 -122.304756 187 25ft 0kts
28-Mar-20 10:40 47.537044 -122.304756 187 24ft 0kts
28-Mar-20 10:41 47.537044 -122.304756 187 24ft 0kts
28-Mar-20 10:42 47.537044 -122.304756 187 24ft 0kts
28-Mar-20 10:43 47.537044 -122.304756 187 24ft 0kts
28-Mar-20 10:44 47.537044 -122.304756 187 24ft 0kts
28-Mar-20 10:45 47.537044 -122.304756 187 24ft 0kts
28-Mar-20 10:46 47.537044 -122.304756 187 24ft 0kts
28-Mar-20 10:47 47.537044 -122.304756 187 24ft 0kts
28-Mar-20 10:48 47.537044 -122.304756 187 24ft 0kts
28-Mar-20 10:49 47.537044 -122.304756 187 24ft 0kts
28-Mar-20 10:50 47.537044 -122.304756 187 24ft 0kts
28-Mar-20 10:51 47.537044 -122.304756 187 24ft 0kts
28-Mar-20 10:52 47.537044 -122.304756 187 24ft 0kts
28-Mar-20 10:53 47.537044 -122.304756 187 24ft 0kts
28-Mar-20 10:54 47.537044 -122.304756 187 24ft 0kts
28-Mar-20 10:55 47.537044 -122.304756 187 24ft 0kts
28-Mar-20 10:56 47.537044 -122.304756 187 24ft 0kts
28-Mar-20 10:57 47.537044 -122.304756 187 24ft 0kts
28-Mar-20 10:58 47.537044 -122.304756 187 24ft 0kts
28-Mar-20 10:59 47.537044 -122.304756 187 24ft 0kts
28-Mar-20 11:00 47.537044 -122.304756 187 24ft 0kts
28-Mar-20 11:01 47.537044 -122.304756 187 24ft 0kts
28-Mar-20 11:02 47.537044 -122.304756 187 24ft 0kts
28-Mar-20 11:03 47.537044 -122.304756 187 24ft 0kts
28-Mar-20 11:04 47.537044 -122.304756 187 24ft 0kts
28-Mar-20 11:05 47.537044 -122.304756 187 24ft 0kts
28-Mar-20 11:06 47.537044 -122.304756 187 24ft 0kts
28-Mar-20 11:07 47.537044 -122.304756 187 24ft 0kts
28-Mar-20 11:08 47.537044 -122.304756 187 24ft 0kts
28-Mar-20 11:09 47.537044 -122.304756 187 24ft 0kts
28-Mar-20 11:11 47.537044 -122.304756 187 24ft 0kts
28-Mar-20 11:12 47.536995 -122.304767 187 24ft 0kts
28-Mar-20 11:13 47.536933 -122.304779 187 24ft 0kts
28-Mar-20 11:14 47.536933 -122.304779 187 24ft 0kts
28-Mar-20 11:15 47.536933 -122.304779 187 24ft 0kts
28-Mar-20 11:16 47.536910 -122.304784 187 24ft 0kts
28-Mar-20 11:17 47.536684 -122.304908 217 24ft 4kts
28-Mar-20 11:18 47.538362 -122.306878 330 24ft 7kts
28-Mar-20 11:19 47.539998 -122.308274 329 24ft 6kts
28-Mar-20 11:20 47.540878 -122.309276 308 24ft 0kts
28-Mar-20 11:21 47.540878 -122.309276 308 24ft 0kts
28-Mar-20 11:22 47.540878 -122.309276 308 24ft 0kts
28-Mar-20 11:23 47.540878 -122.309276 308 24ft 0kts
28-Mar-20 11:24 47.540878 -122.309276 308 24ft 0kts
28-Mar-20 11:25 47.540878 -122.309276 308 24ft 0kts
28-Mar-20 11:26 47.540878 -122.309276 308 24ft 0kts
28-Mar-20 11:27 47.540889 -122.309897 247 24ft 0kts
28-Mar-20 11:28 47.540881 -122.309923 246 24ft 0kts
28-Mar-20 11:28 47.540851 -122.310019 245 24ft 0kts
28-Mar-20 11:29 47.540851 -122.310019 245 24ft 0kts
28-Mar-20 11:30 47.540851 -122.310019 245 24ft 0kts
28-Mar-20 11:32 47.540851 -122.310019 245 24ft 0kts
28-Mar-20 11:32 47.540851 -122.310019 245 24ft 0kts
28-Mar-20 11:33 47.540851 -122.310019 245 24ft 0kts
28-Mar-20 11:34 47.540851 -122.310019 245 24ft 0kts
28-Mar-20 11:35 47.539967 -122.310915 154 24ft 9kts
28-Mar-20 11:36 47.517156 -122.291085 150 449ft 159kts
28-Mar-20 11:37 47.476826 -122.256743 152 2146ft 197kts
28-Mar-20 11:38 47.432728 -122.187064 125 4469ft 259kts
28-Mar-20 11:39 47.376784 -122.141315 207 7553ft 255kts
28-Mar-20 11:40 47.308393 -122.173883 197 10676ft 266kts
28-Mar-20 11:41 47.232430 -122.203041 197 12612ft 312kts
28-Mar-20 11:42 47.144494 -122.236505 198 14842ft 338kts
28-Mar-20 11:43 47.051384 -122.271934 198 17016ft 355kts
28-Mar-20 11:44 46.952920 -122.308096 192 18839ft 376kts
28-Mar-20 11:45 46.850407 -122.310024 182 19047ft 384kts
28-Mar-20 11:46 46.743405 -122.309591 182 19046ft 384kts
28-Mar-20 11:47 46.636332 -122.309539 182 19053ft 384kts
28-Mar-20 11:48 46.529601 -122.309507 182 18419ft 378kts
28-Mar-20 11:49 46.427969 -122.309467 182 16486ft 340kts
28-Mar-20 11:50 46.337430 -122.309496 182 14772ft 318kts
28-Mar-20 11:51 46.250226 -122.312468 194 13272ft 303kts
28-Mar-20 11:52 46.175536 -122.354245 203 12389ft 279kts
28-Mar-20 11:53 46.103666 -122.394977 202 11603ft 276kts
28-Mar-20 11:54 46.031275 -122.434343 201 10210ft 279kts
28-Mar-20 11:55 45.958488 -122.473525 201 8577ft 279kts
28-Mar-20 11:56 45.897035 -122.529268 222 7110ft 275kts
28-Mar-20 11:57 45.842699 -122.599580 220 5974ft 233kts
28-Mar-20 11:58 45.798450 -122.655660 219 5993ft 214kts
28-Mar-20 11:59 45.756663 -122.717633 228 5994ft 217kts
28-Mar-20 12:00 45.761211 -122.798711 295 5989ft 230kts
28-Mar-20 12:01 45.746325 -122.867777 193 4512ft 213kts
28-Mar-20 12:02 45.696763 -122.827940 144 3039ft 206kts
28-Mar-20 12:03 45.663200 -122.771240 122 2570ft 184kts
28-Mar-20 12:04 45.638762 -122.708347 120 2152ft 172kts
28-Mar-20 12:05 45.619057 -122.655624 120 975ft 137kts
28-Mar-20 12:06 45.599919 -122.608751 120 252ft 135kts
28-Mar-20 12:07 45.586019 -122.573075 119 35ft 52kts
28-Mar-20 12:08 45.583500 -122.569493 269 35ft 9kts
28-Mar-20 12:09 45.585423 -122.574775 298 35ft 17kts
28-Mar-20 12:10 45.587669 -122.580549 298 35ft 16kts
28-Mar-20 12:11 45.587159 -122.581619 119 35ft 11kts
28-Mar-20 12:12 45.586231 -122.580423 339 35ft 0kts
28-Mar-20 12:13 45.586231 -122.580423 339 35ft 0kts
28-Mar-20 12:14 45.586231 -122.580423 339 35ft 0kts
28-Mar-20 12:15 45.586231 -122.580423 339 35ft 0kts
28-Mar-20 12:16 45.586231 -122.580423 339 35ft 0kts
28-Mar-20 12:17 45.586231 -122.580423 339 35ft 0kts
28-Mar-20 12:18 45.586231 -122.580423 339 35ft 0kts
28-Mar-20 12:19 45.586231 -122.580423 339 35ft 0kts

Navigation Log

Ident Type
Flight plan parsing failed, navigation log unavailable